sensor_id;sensor_type;location;lat;lon;timestamp;temperature;humidity
59771;DHT22;45649;53.014;6.600;2023-07-02T00:00:59;17.70;77.60
59771;DHT22;45649;53.014;6.600;2023-07-02T00:03:25;17.70;77.90
59771;DHT22;45649;53.014;6.600;2023-07-02T00:05:51;17.70;77.80
59771;DHT22;45649;53.014;6.600;2023-07-02T00:08:21;17.60;78.00
59771;DHT22;45649;53.014;6.600;2023-07-02T00:10:47;17.60;78.00
59771;DHT22;45649;53.014;6.600;2023-07-02T00:13:12;17.60;77.50
59771;DHT22;45649;53.014;6.600;2023-07-02T00:15:38;17.60;77.20
59771;DHT22;45649;53.014;6.600;2023-07-02T00:18:04;17.60;77.20
59771;DHT22;45649;53.014;6.600;2023-07-02T00:20:29;17.60;76.80
59771;DHT22;45649;53.014;6.600;2023-07-02T00:22:55;17.60;76.70
59771;DHT22;45649;53.014;6.600;2023-07-02T00:25:21;17.50;76.40
59771;DHT22;45649;53.014;6.600;2023-07-02T00:27:47;17.50;76.20
59771;DHT22;45649;53.014;6.600;2023-07-02T00:30:13;17.50;76.10
59771;DHT22;45649;53.014;6.600;2023-07-02T00:32:39;17.60;76.00
59771;DHT22;45649;53.014;6.600;2023-07-02T00:35:05;17.50;75.60
59771;DHT22;45649;53.014;6.600;2023-07-02T00:37:31;17.50;75.80
59771;DHT22;45649;53.014;6.600;2023-07-02T00:39:57;17.50;75.50
59771;DHT22;45649;53.014;6.600;2023-07-02T00:42:23;17.40;75.40
59771;DHT22;45649;53.014;6.600;2023-07-02T00:44:49;17.40;75.40
59771;DHT22;45649;53.014;6.600;2023-07-02T00:47:18;17.40;75.50
59771;DHT22;45649;53.014;6.600;2023-07-02T00:49:43;17.30;75.80
59771;DHT22;45649;53.014;6.600;2023-07-02T00:52:09;17.30;75.50
59771;DHT22;45649;53.014;6.600;2023-07-02T00:54:36;17.30;75.40
59771;DHT22;45649;53.014;6.600;2023-07-02T00:57:02;17.30;75.40
59771;DHT22;45649;53.014;6.600;2023-07-02T00:59:30;17.20;75.40
59771;DHT22;45649;53.014;6.600;2023-07-02T01:01:56;17.20;75.50
59771;DHT22;45649;53.014;6.600;2023-07-02T01:04:22;17.20;75.80
59771;DHT22;45649;53.014;6.600;2023-07-02T01:06:53;17.20;75.60
59771;DHT22;45649;53.014;6.600;2023-07-02T01:09:23;17.10;75.60
59771;DHT22;45649;53.014;6.600;2023-07-02T01:11:54;17.10;75.80
59771;DHT22;45649;53.014;6.600;2023-07-02T01:14:30;17.10;75.50
59771;DHT22;45649;53.014;6.600;2023-07-02T01:16:57;17.10;75.40
59771;DHT22;45649;53.014;6.600;2023-07-02T01:19:46;17.00;75.90
59771;DHT22;45649;53.014;6.600;2023-07-02T01:22:23;17.00;76.30
59771;DHT22;45649;53.014;6.600;2023-07-02T01:24:49;17.00;76.30
59771;DHT22;45649;53.014;6.600;2023-07-02T01:27:16;16.90;76.40
59771;DHT22;45649;53.014;6.600;2023-07-02T01:29:42;16.90;76.60
59771;DHT22;45649;53.014;6.600;2023-07-02T01:32:10;17.00;76.70
59771;DHT22;45649;53.014;6.600;2023-07-02T01:34:36;16.90;76.60
59771;DHT22;45649;53.014;6.600;2023-07-02T01:37:03;16.90;76.90
59771;DHT22;45649;53.014;6.600;2023-07-02T01:39:30;16.90;76.80
59771;DHT22;45649;53.014;6.600;2023-07-02T01:42:06;17.10;75.90
59771;DHT22;45649;53.014;6.600;2023-07-02T01:44:32;16.90;76.20
59771;DHT22;45649;53.014;6.600;2023-07-02T01:46:58;16.90;76.50
59771;DHT22;45649;53.014;6.600;2023-07-02T01:49:24;16.80;76.90
59771;DHT22;45649;53.014;6.600;2023-07-02T01:51:54;16.80;77.20
59771;DHT22;45649;53.014;6.600;2023-07-02T01:54:22;16.70;77.60
59771;DHT22;45649;53.014;6.600;2023-07-02T01:56:48;16.70;77.80
59771;DHT22;45649;53.014;6.600;2023-07-02T01:59:14;16.70;77.90
59771;DHT22;45649;53.014;6.600;2023-07-02T02:04:16;16.80;79.40
59771;DHT22;45649;53.014;6.600;2023-07-02T02:06:42;16.70;78.40
59771;DHT22;45649;53.014;6.600;2023-07-02T02:09:08;16.60;78.30
59771;DHT22;45649;53.014;6.600;2023-07-02T02:11:37;16.50;78.50
59771;DHT22;45649;53.014;6.600;2023-07-02T02:14:03;16.50;78.60
59771;DHT22;45649;53.014;6.600;2023-07-02T02:16:29;16.80;77.20
59771;DHT22;45649;53.014;6.600;2023-07-02T02:18:55;16.60;77.90
59771;DHT22;45649;53.014;6.600;2023-07-02T02:21:21;16.60;79.80
59771;DHT22;45649;53.014;6.600;2023-07-02T02:23:47;16.60;78.70
59771;DHT22;45649;53.014;6.600;2023-07-02T02:26:13;16.50;78.50
59771;DHT22;45649;53.014;6.600;2023-07-02T02:28:39;16.80;77.50
59771;DHT22;45649;53.014;6.600;2023-07-02T02:31:05;16.70;77.70
59771;DHT22;45649;53.014;6.600;2023-07-02T02:33:32;16.60;77.60
59771;DHT22;45649;53.014;6.600;2023-07-02T02:35:58;16.50;78.00
59771;DHT22;45649;53.014;6.600;2023-07-02T02:38:23;16.50;78.20
59771;DHT22;45649;53.014;6.600;2023-07-02T02:40:49;16.50;78.10
59771;DHT22;45649;53.014;6.600;2023-07-02T02:43:15;16.40;78.20
59771;DHT22;45649;53.014;6.600;2023-07-02T02:45:43;16.40;78.30
59771;DHT22;45649;53.014;6.600;2023-07-02T02:48:08;16.30;78.20
59771;DHT22;45649;53.014;6.600;2023-07-02T02:50:34;16.30;78.60
59771;DHT22;45649;53.014;6.600;2023-07-02T02:53:00;16.20;78.80
59771;DHT22;45649;53.014;6.600;2023-07-02T02:55:25;16.20;79.20
59771;DHT22;45649;53.014;6.600;2023-07-02T02:57:52;16.20;79.60
59771;DHT22;45649;53.014;6.600;2023-07-02T03:00:17;16.10;79.80
59771;DHT22;45649;53.014;6.600;2023-07-02T03:02:43;16.10;80.50
59771;DHT22;45649;53.014;6.600;2023-07-02T03:05:09;16.10;80.90
59771;DHT22;45649;53.014;6.600;2023-07-02T03:07:35;16.10;81.10
59771;DHT22;45649;53.014;6.600;2023-07-02T03:10:01;16.10;81.10
59771;DHT22;45649;53.014;6.600;2023-07-02T03:12:27;16.00;81.40
59771;DHT22;45649;53.014;6.600;2023-07-02T03:14:53;16.00;81.50
59771;DHT22;45649;53.014;6.600;2023-07-02T03:17:21;16.10;81.50
59771;DHT22;45649;53.014;6.600;2023-07-02T03:19:47;16.30;80.30
59771;DHT22;45649;53.014;6.600;2023-07-02T03:22:13;16.10;80.80
59771;DHT22;45649;53.014;6.600;2023-07-02T03:24:39;16.10;80.80
59771;DHT22;45649;53.014;6.600;2023-07-02T03:27:05;16.00;81.10
59771;DHT22;45649;53.014;6.600;2023-07-02T03:29:32;16.00;81.30
59771;DHT22;45649;53.014;6.600;2023-07-02T03:31:58;15.90;81.70
59771;DHT22;45649;53.014;6.600;2023-07-02T03:34:24;15.90;81.60
59771;DHT22;45649;53.014;6.600;2023-07-02T03:36:49;15.90;81.70
59771;DHT22;45649;53.014;6.600;2023-07-02T03:39:15;15.90;81.80
59771;DHT22;45649;53.014;6.600;2023-07-02T03:41:44;15.90;81.80
59771;DHT22;45649;53.014;6.600;2023-07-02T03:44:10;15.90;81.70
59771;DHT22;45649;53.014;6.600;2023-07-02T03:46:36;15.90;82.00
59771;DHT22;45649;53.014;6.600;2023-07-02T03:49:04;15.90;82.50
59771;DHT22;45649;53.014;6.600;2023-07-02T03:51:31;15.90;82.90
59771;DHT22;45649;53.014;6.600;2023-07-02T03:53:58;15.90;82.80
59771;DHT22;45649;53.014;6.600;2023-07-02T03:56:24;16.00;82.70
59771;DHT22;45649;53.014;6.600;2023-07-02T03:58:50;15.90;83.10
59771;DHT22;45649;53.014;6.600;2023-07-02T04:01:15;15.90;83.30
59771;DHT22;45649;53.014;6.600;2023-07-02T04:03:52;16.00;83.20
59771;DHT22;45649;53.014;6.600;2023-07-02T04:06:18;16.00;83.10
59771;DHT22;45649;53.014;6.600;2023-07-02T04:08:45;16.00;83.60
59771;DHT22;45649;53.014;6.600;2023-07-02T04:11:11;16.00;83.50
59771;DHT22;45649;53.014;6.600;2023-07-02T04:13:37;16.30;82.90
59771;DHT22;45649;53.014;6.600;2023-07-02T04:16:03;16.20;82.40
59771;DHT22;45649;53.014;6.600;2023-07-02T04:18:29;16.30;82.40
59771;DHT22;45649;53.014;6.600;2023-07-02T04:20:56;16.30;82.30
59771;DHT22;45649;53.014;6.600;2023-07-02T04:23:21;16.30;83.00
59771;DHT22;45649;53.014;6.600;2023-07-02T04:25:47;16.30;82.80
59771;DHT22;45649;53.014;6.600;2023-07-02T04:28:13;16.40;82.70
59771;DHT22;45649;53.014;6.600;2023-07-02T04:30:38;16.40;82.60
59771;DHT22;45649;53.014;6.600;2023-07-02T04:33:04;16.40;81.70
59771;DHT22;45649;53.014;6.600;2023-07-02T04:35:31;16.50;81.90
59771;DHT22;45649;53.014;6.600;2023-07-02T04:37:57;16.50;82.00
59771;DHT22;45649;53.014;6.600;2023-07-02T04:40:24;16.50;82.10
59771;DHT22;45649;53.014;6.600;2023-07-02T04:42:49;16.50;81.50
59771;DHT22;45649;53.014;6.600;2023-07-02T04:45:23;16.60;81.10
59771;DHT22;45649;53.014;6.600;2023-07-02T04:47:50;16.60;80.00
59771;DHT22;45649;53.014;6.600;2023-07-02T04:50:16;16.70;79.50
59771;DHT22;45649;53.014;6.600;2023-07-02T04:52:42;16.70;79.50
59771;DHT22;45649;53.014;6.600;2023-07-02T04:55:08;16.80;79.30
59771;DHT22;45649;53.014;6.600;2023-07-02T04:57:34;16.80;79.10
59771;DHT22;45649;53.014;6.600;2023-07-02T05:00:00;16.80;79.40
59771;DHT22;45649;53.014;6.600;2023-07-02T05:02:26;16.90;79.10
59771;DHT22;45649;53.014;6.600;2023-07-02T05:04:51;16.90;78.50
59771;DHT22;45649;53.014;6.600;2023-07-02T05:07:17;17.00;78.50
59771;DHT22;45649;53.014;6.600;2023-07-02T05:09:43;17.00;78.50
59771;DHT22;45649;53.014;6.600;2023-07-02T05:12:09;17.00;78.20
59771;DHT22;45649;53.014;6.600;2023-07-02T05:14:34;17.10;78.10
59771;DHT22;45649;53.014;6.600;2023-07-02T05:17:00;17.10;77.70
59771;DHT22;45649;53.014;6.600;2023-07-02T05:19:26;17.20;77.70
59771;DHT22;45649;53.014;6.600;2023-07-02T05:21:52;17.20;76.80
59771;DHT22;45649;53.014;6.600;2023-07-02T05:24:18;17.20;76.90
59771;DHT22;45649;53.014;6.600;2023-07-02T05:26:44;17.20;76.40
59771;DHT22;45649;53.014;6.600;2023-07-02T05:29:10;17.20;76.00
59771;DHT22;45649;53.014;6.600;2023-07-02T05:31:35;17.20;75.50
59771;DHT22;45649;53.014;6.600;2023-07-02T05:34:01;17.30;75.40
59771;DHT22;45649;53.014;6.600;2023-07-02T05:36:27;17.30;74.90
59771;DHT22;45649;53.014;6.600;2023-07-02T05:38:52;17.30;75.10
59771;DHT22;45649;53.014;6.600;2023-07-02T05:41:19;17.40;75.00
59771;DHT22;45649;53.014;6.600;2023-07-02T05:43:45;17.40;74.40
59771;DHT22;45649;53.014;6.600;2023-07-02T05:46:10;17.40;74.30
59771;DHT22;45649;53.014;6.600;2023-07-02T05:48:37;17.50;74.30
59771;DHT22;45649;53.014;6.600;2023-07-02T05:51:03;17.50;74.00
59771;DHT22;45649;53.014;6.600;2023-07-02T05:53:29;17.50;74.00
59771;DHT22;45649;53.014;6.600;2023-07-02T05:55:55;17.60;73.80
59771;DHT22;45649;53.014;6.600;2023-07-02T05:58:21;17.60;73.30
59771;DHT22;45649;53.014;6.600;2023-07-02T06:00:46;17.50;72.40
59771;DHT22;45649;53.014;6.600;2023-07-02T06:03:18;17.40;72.90
59771;DHT22;45649;53.014;6.600;2023-07-02T06:05:49;17.60;71.90
59771;DHT22;45649;53.014;6.600;2023-07-02T06:08:16;17.50;72.30
59771;DHT22;45649;53.014;6.600;2023-07-02T06:10:43;17.50;72.60
59771;DHT22;45649;53.014;6.600;2023-07-02T06:13:09;17.60;72.40
59771;DHT22;45649;53.014;6.600;2023-07-02T06:15:35;17.70;72.30
59771;DHT22;45649;53.014;6.600;2023-07-02T06:18:01;17.70;71.90
59771;DHT22;45649;53.014;6.600;2023-07-02T06:20:27;17.80;71.80
59771;DHT22;45649;53.014;6.600;2023-07-02T06:22:52;17.80;71.10
59771;DHT22;45649;53.014;6.600;2023-07-02T06:25:18;17.70;71.00
59771;DHT22;45649;53.014;6.600;2023-07-02T06:27:44;17.70;71.10
59771;DHT22;45649;53.014;6.600;2023-07-02T06:30:10;17.80;71.50
59771;DHT22;45649;53.014;6.600;2023-07-02T06:32:36;17.80;71.30
59771;DHT22;45649;53.014;6.600;2023-07-02T06:35:02;17.90;71.10
59771;DHT22;45649;53.014;6.600;2023-07-02T06:37:28;17.90;70.80
59771;DHT22;45649;53.014;6.600;2023-07-02T06:39:53;17.90;70.60
59771;DHT22;45649;53.014;6.600;2023-07-02T06:42:19;18.00;70.60
59771;DHT22;45649;53.014;6.600;2023-07-02T06:44:45;18.00;70.10
59771;DHT22;45649;53.014;6.600;2023-07-02T06:47:11;18.00;70.10
59771;DHT22;45649;53.014;6.600;2023-07-02T06:49:36;18.10;69.50
59771;DHT22;45649;53.014;6.600;2023-07-02T06:52:02;18.00;69.40
59771;DHT22;45649;53.014;6.600;2023-07-02T06:54:28;18.00;69.10
59771;DHT22;45649;53.014;6.600;2023-07-02T06:56:54;18.00;69.20
59771;DHT22;45649;53.014;6.600;2023-07-02T06:59:20;18.20;68.50
59771;DHT22;45649;53.014;6.600;2023-07-02T07:01:46;18.30;66.40
59771;DHT22;45649;53.014;6.600;2023-07-02T07:04:12;18.30;65.90
59771;DHT22;45649;53.014;6.600;2023-07-02T07:06:38;18.20;64.70
59771;DHT22;45649;53.014;6.600;2023-07-02T07:09:03;18.30;64.60
59771;DHT22;45649;53.014;6.600;2023-07-02T07:11:29;18.40;64.10
59771;DHT22;45649;53.014;6.600;2023-07-02T07:13:55;18.40;64.50
59771;DHT22;45649;53.014;6.600;2023-07-02T07:16:21;18.40;64.40
59771;DHT22;45649;53.014;6.600;2023-07-02T07:18:47;18.40;63.30
59771;DHT22;45649;53.014;6.600;2023-07-02T07:21:13;18.50;63.70
59771;DHT22;45649;53.014;6.600;2023-07-02T07:23:39;18.50;63.50
59771;DHT22;45649;53.014;6.600;2023-07-02T07:26:06;18.60;63.20
59771;DHT22;45649;53.014;6.600;2023-07-02T07:28:31;18.50;62.10
59771;DHT22;45649;53.014;6.600;2023-07-02T07:30:57;18.50;61.80
59771;DHT22;45649;53.014;6.600;2023-07-02T07:33:23;18.60;61.10
59771;DHT22;45649;53.014;6.600;2023-07-02T07:35:49;18.60;61.00
59771;DHT22;45649;53.014;6.600;2023-07-02T07:38:14;18.70;61.40
59771;DHT22;45649;53.014;6.600;2023-07-02T07:40:41;18.80;61.00
59771;DHT22;45649;53.014;6.600;2023-07-02T07:43:06;18.90;61.00
59771;DHT22;45649;53.014;6.600;2023-07-02T07:45:33;18.90;60.70
59771;DHT22;45649;53.014;6.600;2023-07-02T07:47:59;18.90;60.50
59771;DHT22;45649;53.014;6.600;2023-07-02T07:50:24;19.00;60.60
59771;DHT22;45649;53.014;6.600;2023-07-02T07:52:50;19.00;59.50
59771;DHT22;45649;53.014;6.600;2023-07-02T07:55:16;18.90;60.20
59771;DHT22;45649;53.014;6.600;2023-07-02T07:57:42;18.90;60.90
59771;DHT22;45649;53.014;6.600;2023-07-02T08:00:09;18.60;59.50
59771;DHT22;45649;53.014;6.600;2023-07-02T08:02:38;18.50;60.40
59771;DHT22;45649;53.014;6.600;2023-07-02T08:05:04;18.40;61.10
59771;DHT22;45649;53.014;6.600;2023-07-02T08:07:33;18.20;62.40
59771;DHT22;45649;53.014;6.600;2023-07-02T08:09:59;18.20;63.50
59771;DHT22;45649;53.014;6.600;2023-07-02T08:12:25;18.20;64.10
59771;DHT22;45649;53.014;6.600;2023-07-02T08:14:55;18.30;64.40
59771;DHT22;45649;53.014;6.600;2023-07-02T08:17:21;18.50;64.20
59771;DHT22;45649;53.014;6.600;2023-07-02T08:19:47;18.60;64.30
59771;DHT22;45649;53.014;6.600;2023-07-02T08:22:13;18.60;63.90
59771;DHT22;45649;53.014;6.600;2023-07-02T08:24:38;18.60;63.70
59771;DHT22;45649;53.014;6.600;2023-07-02T08:27:05;18.60;64.00
59771;DHT22;45649;53.014;6.600;2023-07-02T08:29:31;18.50;63.40
59771;DHT22;45649;53.014;6.600;2023-07-02T08:31:57;18.50;63.50
59771;DHT22;45649;53.014;6.600;2023-07-02T08:34:23;18.50;63.00
59771;DHT22;45649;53.014;6.600;2023-07-02T08:36:49;18.70;62.80
59771;DHT22;45649;53.014;6.600;2023-07-02T08:39:15;18.80;62.30
59771;DHT22;45649;53.014;6.600;2023-07-02T08:41:45;18.90;62.50
59771;DHT22;45649;53.014;6.600;2023-07-02T08:44:12;18.80;61.70
59771;DHT22;45649;53.014;6.600;2023-07-02T08:46:41;18.80;62.10
59771;DHT22;45649;53.014;6.600;2023-07-02T08:49:08;18.70;61.70
59771;DHT22;45649;53.014;6.600;2023-07-02T08:51:34;18.80;62.40
59771;DHT22;45649;53.014;6.600;2023-07-02T08:54:01;18.80;62.40
59771;DHT22;45649;53.014;6.600;2023-07-02T08:56:28;18.90;62.80
59771;DHT22;45649;53.014;6.600;2023-07-02T08:58:54;19.10;63.50
59771;DHT22;45649;53.014;6.600;2023-07-02T09:01:20;19.20;62.50
59771;DHT22;45649;53.014;6.600;2023-07-02T09:03:45;19.40;63.00
59771;DHT22;45649;53.014;6.600;2023-07-02T09:06:12;19.30;61.60
59771;DHT22;45649;53.014;6.600;2023-07-02T09:08:38;19.40;62.30
59771;DHT22;45649;53.014;6.600;2023-07-02T09:11:14;19.50;62.40
59771;DHT22;45649;53.014;6.600;2023-07-02T09:13:48;19.50;61.30
59771;DHT22;45649;53.014;6.600;2023-07-02T09:16:22;19.50;61.30
59771;DHT22;45649;53.014;6.600;2023-07-02T09:19:07;19.40;61.60
59771;DHT22;45649;53.014;6.600;2023-07-02T09:21:45;19.30;62.40
59771;DHT22;45649;53.014;6.600;2023-07-02T09:24:21;19.20;62.50
59771;DHT22;45649;53.014;6.600;2023-07-02T09:27:01;19.10;63.30
59771;DHT22;45649;53.014;6.600;2023-07-02T09:29:29;19.00;64.50
59771;DHT22;45649;53.014;6.600;2023-07-02T09:32:05;18.80;67.80
59771;DHT22;45649;53.014;6.600;2023-07-02T09:34:35;18.70;70.30
59771;DHT22;45649;53.014;6.600;2023-07-02T09:37:02;18.60;71.20
59771;DHT22;45649;53.014;6.600;2023-07-02T09:39:30;18.50;71.30
59771;DHT22;45649;53.014;6.600;2023-07-02T09:41:58;18.50;71.70
59771;DHT22;45649;53.014;6.600;2023-07-02T09:44:33;18.50;72.40
59771;DHT22;45649;53.014;6.600;2023-07-02T09:49:31;18.40;71.90
59771;DHT22;45649;53.014;6.600;2023-07-02T09:52:00;18.30;71.80
59771;DHT22;45649;53.014;6.600;2023-07-02T09:54:27;18.40;72.70
59771;DHT22;45649;53.014;6.600;2023-07-02T09:56:52;18.40;72.10
59771;DHT22;45649;53.014;6.600;2023-07-02T09:59:18;18.50;71.90
59771;DHT22;45649;53.014;6.600;2023-07-02T10:01:44;18.60;70.80
59771;DHT22;45649;53.014;6.600;2023-07-02T10:04:14;18.80;69.60
59771;DHT22;45649;53.014;6.600;2023-07-02T10:09:34;19.30;68.30
59771;DHT22;45649;53.014;6.600;2023-07-02T10:11:59;19.50;67.00
59771;DHT22;45649;53.014;6.600;2023-07-02T10:14:25;19.60;66.40
59771;DHT22;45649;53.014;6.600;2023-07-02T10:16:52;19.60;66.40
59771;DHT22;45649;53.014;6.600;2023-07-02T10:19:18;19.60;64.60
59771;DHT22;45649;53.014;6.600;2023-07-02T10:21:44;19.60;64.50
59771;DHT22;45649;53.014;6.600;2023-07-02T10:24:17;19.80;64.90
59771;DHT22;45649;53.014;6.600;2023-07-02T10:26:57;20.10;63.00
59771;DHT22;45649;53.014;6.600;2023-07-02T10:29:24;20.30;58.20
59771;DHT22;45649;53.014;6.600;2023-07-02T10:31:52;20.60;58.60
59771;DHT22;45649;53.014;6.600;2023-07-02T10:34:34;20.70;56.60
59771;DHT22;45649;53.014;6.600;2023-07-02T10:37:01;20.60;52.90
59771;DHT22;45649;53.014;6.600;2023-07-02T10:39:31;20.40;53.80
59771;DHT22;45649;53.014;6.600;2023-07-02T10:42:23;20.30;55.30
59771;DHT22;45649;53.014;6.600;2023-07-02T10:44:52;20.30;54.40
59771;DHT22;45649;53.014;6.600;2023-07-02T10:47:19;20.50;55.80
59771;DHT22;45649;53.014;6.600;2023-07-02T10:49:45;20.70;55.80
59771;DHT22;45649;53.014;6.600;2023-07-02T10:52:10;20.80;55.70
59771;DHT22;45649;53.014;6.600;2023-07-02T10:57:07;21.10;55.40
59771;DHT22;45649;53.014;6.600;2023-07-02T10:59:33;21.20;55.50
59771;DHT22;45649;53.014;6.600;2023-07-02T11:01:58;21.30;55.90
59771;DHT22;45649;53.014;6.600;2023-07-02T11:04:30;21.20;54.90
59771;DHT22;45649;53.014;6.600;2023-07-02T11:06:56;21.20;54.50
59771;DHT22;45649;53.014;6.600;2023-07-02T11:09:21;21.20;55.50
59771;DHT22;45649;53.014;6.600;2023-07-02T11:11:56;21.10;54.50
59771;DHT22;45649;53.014;6.600;2023-07-02T11:14:32;20.90;55.20
59771;DHT22;45649;53.014;6.600;2023-07-02T11:16:59;20.60;54.60
59771;DHT22;45649;53.014;6.600;2023-07-02T11:19:25;20.60;54.80
59771;DHT22;45649;53.014;6.600;2023-07-02T11:21:56;20.70;56.40
59771;DHT22;45649;53.014;6.600;2023-07-02T11:24:33;20.80;56.30
59771;DHT22;45649;53.014;6.600;2023-07-02T11:27:00;20.70;56.10
59771;DHT22;45649;53.014;6.600;2023-07-02T11:29:26;20.60;55.80
59771;DHT22;45649;53.014;6.600;2023-07-02T11:31:52;20.80;58.20
59771;DHT22;45649;53.014;6.600;2023-07-02T11:34:20;21.10;57.40
59771;DHT22;45649;53.014;6.600;2023-07-02T11:36:46;21.30;56.10
59771;DHT22;45649;53.014;6.600;2023-07-02T11:39:12;21.20;55.50
59771;DHT22;45649;53.014;6.600;2023-07-02T11:41:44;21.00;55.80
59771;DHT22;45649;53.014;6.600;2023-07-02T11:44:11;20.90;55.20
59771;DHT22;45649;53.014;6.600;2023-07-02T11:46:36;21.00;56.80
59771;DHT22;45649;53.014;6.600;2023-07-02T11:49:03;21.10;57.00
59771;DHT22;45649;53.014;6.600;2023-07-02T11:51:39;21.20;56.90
59771;DHT22;45649;53.014;6.600;2023-07-02T11:54:05;21.40;55.70
59771;DHT22;45649;53.014;6.600;2023-07-02T11:56:31;21.30;56.70
59771;DHT22;45649;53.014;6.600;2023-07-02T11:58:57;21.10;56.70
59771;DHT22;45649;53.014;6.600;2023-07-02T12:01:23;21.00;57.40
59771;DHT22;45649;53.014;6.600;2023-07-02T12:03:48;21.00;58.30
59771;DHT22;45649;53.014;6.600;2023-07-02T12:06:14;20.90;57.40
59771;DHT22;45649;53.014;6.600;2023-07-02T12:08:40;20.90;56.70
59771;DHT22;45649;53.014;6.600;2023-07-02T12:11:06;20.90;55.10
59771;DHT22;45649;53.014;6.600;2023-07-02T12:13:32;21.10;55.10
59771;DHT22;45649;53.014;6.600;2023-07-02T12:15:58;21.10;53.80
59771;DHT22;45649;53.014;6.600;2023-07-02T12:18:23;21.30;54.40
59771;DHT22;45649;53.014;6.600;2023-07-02T12:20:49;21.20;54.20
59771;DHT22;45649;53.014;6.600;2023-07-02T12:23:15;21.10;54.70
59771;DHT22;45649;53.014;6.600;2023-07-02T12:25:41;21.00;55.80
59771;DHT22;45649;53.014;6.600;2023-07-02T12:28:06;21.00;56.20
59771;DHT22;45649;53.014;6.600;2023-07-02T12:30:32;21.00;57.80
59771;DHT22;45649;53.014;6.600;2023-07-02T12:32:58;21.00;55.90
59771;DHT22;45649;53.014;6.600;2023-07-02T12:35:24;21.00;55.70
59771;DHT22;45649;53.014;6.600;2023-07-02T12:37:51;21.00;55.50
59771;DHT22;45649;53.014;6.600;2023-07-02T12:40:17;21.10;56.30
59771;DHT22;45649;53.014;6.600;2023-07-02T12:42:44;20.90;54.40
59771;DHT22;45649;53.014;6.600;2023-07-02T12:45:11;20.80;54.40
59771;DHT22;45649;53.014;6.600;2023-07-02T12:47:41;20.80;53.80
59771;DHT22;45649;53.014;6.600;2023-07-02T12:50:08;20.80;53.30
59771;DHT22;45649;53.014;6.600;2023-07-02T12:52:34;20.60;54.00
59771;DHT22;45649;53.014;6.600;2023-07-02T12:55:00;20.50;56.00
59771;DHT22;45649;53.014;6.600;2023-07-02T12:57:26;20.50;57.60
59771;DHT22;45649;53.014;6.600;2023-07-02T12:59:53;20.50;55.50
59771;DHT22;45649;53.014;6.600;2023-07-02T13:02:19;20.50;55.80
59771;DHT22;45649;53.014;6.600;2023-07-02T13:04:45;20.60;56.50
59771;DHT22;45649;53.014;6.600;2023-07-02T13:07:11;20.70;58.00
59771;DHT22;45649;53.014;6.600;2023-07-02T13:09:36;20.70;55.60
59771;DHT22;45649;53.014;6.600;2023-07-02T13:12:02;20.70;58.80
59771;DHT22;45649;53.014;6.600;2023-07-02T13:14:28;20.60;57.60
59771;DHT22;45649;53.014;6.600;2023-07-02T13:16:54;20.50;57.90
59771;DHT22;45649;53.014;6.600;2023-07-02T13:19:20;20.40;57.10
59771;DHT22;45649;53.014;6.600;2023-07-02T13:21:45;20.30;58.90
59771;DHT22;45649;53.014;6.600;2023-07-02T13:24:11;20.10;57.70
59771;DHT22;45649;53.014;6.600;2023-07-02T13:26:38;20.10;57.40
59771;DHT22;45649;53.014;6.600;2023-07-02T13:29:03;20.00;57.30
59771;DHT22;45649;53.014;6.600;2023-07-02T13:31:29;20.10;59.70
59771;DHT22;45649;53.014;6.600;2023-07-02T13:33:55;20.10;60.20
59771;DHT22;45649;53.014;6.600;2023-07-02T13:36:21;20.20;59.60
59771;DHT22;45649;53.014;6.600;2023-07-02T13:38:46;20.20;60.00
59771;DHT22;45649;53.014;6.600;2023-07-02T13:41:12;20.20;58.60
59771;DHT22;45649;53.014;6.600;2023-07-02T13:43:38;20.20;57.50
59771;DHT22;45649;53.014;6.600;2023-07-02T13:46:04;20.20;56.40
59771;DHT22;45649;53.014;6.600;2023-07-02T13:48:30;20.20;56.30
59771;DHT22;45649;53.014;6.600;2023-07-02T13:50:55;20.20;54.90
59771;DHT22;45649;53.014;6.600;2023-07-02T13:53:21;20.30;54.40
59771;DHT22;45649;53.014;6.600;2023-07-02T13:55:47;20.30;54.90
59771;DHT22;45649;53.014;6.600;2023-07-02T13:58:12;20.30;53.20
59771;DHT22;45649;53.014;6.600;2023-07-02T14:00:38;20.30;55.00
59771;DHT22;45649;53.014;6.600;2023-07-02T14:03:05;20.40;54.80
59771;DHT22;45649;53.014;6.600;2023-07-02T14:05:31;20.40;53.20
59771;DHT22;45649;53.014;6.600;2023-07-02T14:07:57;20.30;53.00
59771;DHT22;45649;53.014;6.600;2023-07-02T14:10:22;20.30;51.70
59771;DHT22;45649;53.014;6.600;2023-07-02T14:12:48;20.30;52.70
59771;DHT22;45649;53.014;6.600;2023-07-02T14:15:14;20.40;52.10
59771;DHT22;45649;53.014;6.600;2023-07-02T14:17:40;20.50;52.90
59771;DHT22;45649;53.014;6.600;2023-07-02T14:20:08;20.40;54.30
59771;DHT22;45649;53.014;6.600;2023-07-02T14:22:34;20.40;55.80
59771;DHT22;45649;53.014;6.600;2023-07-02T14:24:59;20.40;55.40
59771;DHT22;45649;53.014;6.600;2023-07-02T14:27:25;20.40;54.70
59771;DHT22;45649;53.014;6.600;2023-07-02T14:29:51;20.40;54.30
59771;DHT22;45649;53.014;6.600;2023-07-02T14:32:17;20.40;54.60
59771;DHT22;45649;53.014;6.600;2023-07-02T14:34:42;20.30;53.20
59771;DHT22;45649;53.014;6.600;2023-07-02T14:37:08;20.30;52.50
59771;DHT22;45649;53.014;6.600;2023-07-02T14:39:34;20.20;53.20
59771;DHT22;45649;53.014;6.600;2023-07-02T14:42:00;20.20;53.50
59771;DHT22;45649;53.014;6.600;2023-07-02T14:44:26;20.20;54.90
59771;DHT22;45649;53.014;6.600;2023-07-02T14:46:51;20.30;54.30
59771;DHT22;45649;53.014;6.600;2023-07-02T14:49:17;20.60;53.80
59771;DHT22;45649;53.014;6.600;2023-07-02T14:51:43;20.60;54.60
59771;DHT22;45649;53.014;6.600;2023-07-02T14:54:09;20.80;52.80
59771;DHT22;45649;53.014;6.600;2023-07-02T14:56:35;20.90;52.20
59771;DHT22;45649;53.014;6.600;2023-07-02T14:59:03;21.00;51.00
59771;DHT22;45649;53.014;6.600;2023-07-02T15:01:29;21.00;51.30
59771;DHT22;45649;53.014;6.600;2023-07-02T15:03:55;20.90;50.90
59771;DHT22;45649;53.014;6.600;2023-07-02T15:06:21;20.80;49.90
59771;DHT22;45649;53.014;6.600;2023-07-02T15:08:47;20.80;52.10
59771;DHT22;45649;53.014;6.600;2023-07-02T15:11:14;20.80;51.40
59771;DHT22;45649;53.014;6.600;2023-07-02T15:13:41;20.70;50.40
59771;DHT22;45649;53.014;6.600;2023-07-02T15:16:08;20.50;50.30
59771;DHT22;45649;53.014;6.600;2023-07-02T15:18:34;20.50;51.10
59771;DHT22;45649;53.014;6.600;2023-07-02T15:21:00;20.50;51.80
59771;DHT22;45649;53.014;6.600;2023-07-02T15:23:28;20.50;50.10
59771;DHT22;45649;53.014;6.600;2023-07-02T15:26:00;20.60;49.60
59771;DHT22;45649;53.014;6.600;2023-07-02T15:28:27;20.70;49.60
59771;DHT22;45649;53.014;6.600;2023-07-02T15:30:54;20.70;50.10
59771;DHT22;45649;53.014;6.600;2023-07-02T15:33:21;20.50;49.90
59771;DHT22;45649;53.014;6.600;2023-07-02T15:35:47;20.50;50.90
59771;DHT22;45649;53.014;6.600;2023-07-02T15:38:13;20.50;49.90